createdAt,value
2018-07-08T00:00:28.651Z,16.09
2018-07-08T00:03:05.830Z,16.02
2018-07-08T00:05:41.892Z,16.09
2018-07-08T00:08:18.053Z,15.96
2018-07-08T00:10:56.058Z,15.88
2018-07-08T00:13:29.532Z,15.82
2018-07-08T00:16:04.233Z,15.73
2018-07-08T00:18:39.219Z,15.68
2018-07-08T00:21:14.897Z,15.70
2018-07-08T00:23:51.277Z,15.75
2018-07-08T00:26:24.744Z,15.72
2018-07-08T00:29:01.298Z,15.68
2018-07-08T00:31:33.863Z,15.66
2018-07-08T00:34:08.112Z,15.50
2018-07-08T00:36:41.865Z,15.45
2018-07-08T00:39:15.322Z,15.32
2018-07-08T00:41:48.109Z,15.22
2018-07-08T00:44:21.792Z,15.17
2018-07-08T00:46:54.288Z,15.22
2018-07-08T00:49:27.911Z,15.07
2018-07-08T00:52:00.613Z,14.94
2018-07-08T00:54:33.085Z,14.92
2018-07-08T00:57:06.513Z,14.87
2018-07-08T00:59:44.794Z,14.84
2018-07-08T01:02:18.661Z,14.83
2018-07-08T01:04:51.131Z,14.75
2018-07-08T01:07:25.229Z,14.69
2018-07-08T01:09:57.722Z,14.75
2018-07-08T01:12:32.357Z,14.67
2018-07-08T01:15:09.085Z,14.58
2018-07-08T01:17:43.805Z,14.51
2018-07-08T01:20:16.265Z,14.42
2018-07-08T01:22:51.977Z,14.31
2018-07-08T01:25:46.657Z,14.23
2018-07-08T01:28:19.430Z,14.20
2018-07-08T01:30:52.357Z,14.25
2018-07-08T01:33:26.170Z,14.26
2018-07-08T01:35:59.849Z,14.34
2018-07-08T01:38:32.898Z,14.35
2018-07-08T01:41:06.496Z,14.29
2018-07-08T01:43:40.263Z,14.23
2018-07-08T01:46:13.371Z,14.17
2018-07-08T01:48:45.963Z,14.13
2018-07-08T01:51:18.494Z,14.09
2018-07-08T01:53:53.086Z,14.11
2018-07-08T01:56:26.185Z,14.12
2018-07-08T01:58:59.230Z,14.09
2018-07-08T02:01:32.146Z,14.10
2018-07-08T02:04:06.921Z,14.10
2018-07-08T02:06:43.080Z,14.16
2018-07-08T02:09:17.297Z,14.19
2018-07-08T02:11:53.822Z,14.15
2018-07-08T02:14:27.953Z,14.07
2018-07-08T02:17:01.672Z,14.00
2018-07-08T02:19:38.223Z,13.92
2018-07-08T02:22:12.136Z,13.83
2018-07-08T02:24:44.969Z,13.77
2018-07-08T02:27:18.938Z,13.70
2018-07-08T02:29:52.575Z,13.65
2018-07-08T02:32:28.672Z,13.62
2018-07-08T02:35:02.081Z,13.60
2018-07-08T02:37:35.013Z,13.61
2018-07-08T02:40:08.204Z,13.55
2018-07-08T02:42:41.843Z,13.51
2018-07-08T02:45:16.521Z,13.54
2018-07-08T02:47:51.174Z,13.49
2018-07-08T02:50:24.355Z,13.37
2018-07-08T02:52:56.973Z,13.37
2018-07-08T02:55:29.770Z,13.25
2018-07-08T02:58:03.045Z,13.19
2018-07-08T03:00:35.527Z,13.11
2018-07-08T03:03:08.503Z,13.06
2018-07-08T03:05:41.083Z,13.00
2018-07-08T03:08:13.659Z,12.97
2018-07-08T03:10:46.675Z,12.92
2018-07-08T03:13:19.415Z,12.88
2018-07-08T03:15:52.955Z,12.92
2018-07-08T03:18:26.639Z,12.99
2018-07-08T03:20:59.098Z,12.89
2018-07-08T03:23:31.783Z,12.77
2018-07-08T03:26:04.666Z,12.72
2018-07-08T03:28:37.306Z,12.72
2018-07-08T03:31:10.365Z,12.69
2018-07-08T03:33:43.398Z,12.65
2018-07-08T03:36:15.838Z,12.55
2018-07-08T03:38:48.466Z,12.54
2018-07-08T03:41:21.228Z,12.55
2018-07-08T03:43:53.865Z,12.58
2018-07-08T03:46:26.634Z,12.57
2018-07-08T03:49:00.684Z,12.55
2018-07-08T03:51:33.198Z,12.60
2018-07-08T03:54:22.765Z,12.57
2018-07-08T03:56:55.345Z,12.67
2018-07-08T03:59:27.927Z,12.61
2018-07-08T04:02:00.394Z,12.58
2018-07-08T04:04:36.132Z,12.57
2018-07-08T04:07:12.397Z,12.56
2018-07-08T04:09:45.385Z,12.55
2018-07-08T04:12:17.886Z,12.52
2018-07-08T04:14:50.519Z,12.51
2018-07-08T04:17:23.362Z,12.55
2018-07-08T04:19:55.785Z,12.55
2018-07-08T04:22:29.149Z,12.51
2018-07-08T04:25:02.230Z,12.53
2018-07-08T04:27:34.740Z,12.54
2018-07-08T04:30:07.505Z,12.57
2018-07-08T04:32:41.464Z,12.57
2018-07-08T04:35:13.916Z,12.69
2018-07-08T04:37:46.481Z,12.74
2018-07-08T04:40:19.511Z,12.89
2018-07-08T04:42:52.045Z,13.00
2018-07-08T04:45:24.643Z,13.02
2018-07-08T04:47:58.456Z,13.04
2018-07-08T04:50:30.969Z,13.15
2018-07-08T04:53:03.490Z,13.21
2018-07-08T04:55:36.334Z,13.28
2018-07-08T04:58:08.754Z,13.37
2018-07-08T05:00:41.388Z,13.48
2018-07-08T05:03:14.208Z,13.55
2018-07-08T05:05:46.687Z,13.61
2018-07-08T05:08:19.266Z,13.65
2018-07-08T05:10:52.068Z,13.63
2018-07-08T05:13:24.713Z,13.63
2018-07-08T05:15:57.299Z,13.68
2018-07-08T05:18:31.767Z,13.81
2018-07-08T05:21:05.514Z,13.84
2018-07-08T05:23:38.045Z,13.94
2018-07-08T05:26:11.581Z,13.99
2018-07-08T05:28:43.993Z,14.13
2018-07-08T05:31:18.833Z,14.22
2018-07-08T05:33:51.628Z,14.29
2018-07-08T05:36:24.168Z,14.31
2018-07-08T05:38:57.768Z,14.33
2018-07-08T05:41:33.317Z,14.42
2018-07-08T05:44:06.544Z,14.50
2018-07-08T05:46:39.240Z,14.57
2018-07-08T05:49:12.201Z,14.64
2018-07-08T05:51:45.025Z,14.70
2018-07-08T05:54:17.571Z,14.76
2018-07-08T05:56:50.351Z,14.81
2018-07-08T05:59:23.429Z,14.89
2018-07-08T06:01:58.450Z,14.91
2018-07-08T06:04:32.250Z,15.00
2018-07-08T06:07:05.306Z,15.02
2018-07-08T06:09:38.041Z,15.01
2018-07-08T06:12:12.469Z,15.11
2018-07-08T06:14:44.876Z,15.09
2018-07-08T06:17:17.478Z,15.15
2018-07-08T06:19:51.097Z,15.28
2018-07-08T06:22:28.653Z,15.39
2018-07-08T06:25:01.339Z,15.47
2018-07-08T06:27:35.268Z,15.53
2018-07-08T06:30:07.984Z,15.60
2018-07-08T06:32:40.607Z,15.60
2018-07-08T06:35:13.531Z,15.61
2018-07-08T06:37:46.716Z,15.62
2018-07-08T06:40:20.390Z,15.73
2018-07-08T06:42:53.474Z,15.75
2018-07-08T06:45:25.950Z,15.77
2018-07-08T06:47:59.436Z,15.88
2018-07-08T06:50:33.149Z,15.91
2018-07-08T06:53:07.566Z,15.93
2018-07-08T06:55:40.685Z,16.00
2018-07-08T06:58:15.433Z,16.19
2018-07-08T07:00:48.022Z,16.37
2018-07-08T07:03:20.758Z,16.37
2018-07-08T07:05:56.238Z,16.39
2018-07-08T07:08:39.693Z,16.53
2018-07-08T07:11:14.488Z,16.60
2018-07-08T07:13:51.556Z,16.62
2018-07-08T07:16:25.530Z,16.69
2018-07-08T07:18:59.171Z,16.80
2018-07-08T07:21:38.851Z,16.85
2018-07-08T07:24:18.177Z,16.99
2018-07-08T07:26:53.371Z,17.03
2018-07-08T07:29:26.244Z,16.98
2018-07-08T07:32:03.473Z,17.07
2018-07-08T07:34:37.939Z,17.19
2018-07-08T07:37:21.660Z,17.20
2018-07-08T07:40:26.677Z,17.46
2018-07-08T07:43:01.468Z,17.54
2018-07-08T07:45:37.881Z,17.56
2018-07-08T07:48:22.181Z,17.57
2018-07-08T07:50:55.419Z,17.64
2018-07-08T07:53:33.212Z,17.89
2018-07-08T07:56:08.592Z,18.23
2018-07-08T07:58:42.884Z,19.06
2018-07-08T08:01:17.973Z,20.21
2018-07-08T08:03:50.646Z,21.21
2018-07-08T08:06:23.795Z,21.78
2018-07-08T08:08:57.595Z,21.98
2018-07-08T08:11:32.657Z,22.20
2018-07-08T08:14:08.302Z,22.21
2018-07-08T08:16:42.644Z,22.46
2018-07-08T08:19:21.361Z,22.79
2018-07-08T08:21:55.669Z,23.25
2018-07-08T08:24:33.470Z,23.61
2018-07-08T08:27:13.533Z,23.26
2018-07-08T08:29:58.799Z,23.04
2018-07-08T08:32:40.649Z,22.89
2018-07-08T08:35:22.095Z,23.36
2018-07-08T08:37:57.357Z,23.14
2018-07-08T08:40:32.929Z,23.64
2018-07-08T08:43:16.248Z,23.67
2018-07-08T08:45:49.572Z,23.77
2018-07-08T08:48:25.196Z,24.18
2018-07-08T08:51:02.593Z,23.87
2018-07-08T08:53:39.745Z,23.96
2018-07-08T08:56:14.162Z,23.89
2018-07-08T08:58:54.802Z,24.01
2018-07-08T09:01:40.895Z,23.96
2018-07-08T09:04:17.694Z,24.07
2018-07-08T09:06:52.789Z,24.50
2018-07-08T09:09:26.665Z,24.75
2018-07-08T09:12:02.429Z,24.55
2018-07-08T09:14:43.941Z,23.58
2018-07-08T09:17:18.369Z,24.35
2018-07-08T09:19:52.760Z,24.26
2018-07-08T09:22:31.625Z,24.56
2018-07-08T09:25:09.750Z,25.34
2018-07-08T09:27:44.990Z,25.71
2018-07-08T09:30:19.966Z,25.41
2018-07-08T09:32:53.035Z,25.39
2018-07-08T09:35:27.722Z,25.33
2018-07-08T09:38:05.570Z,25.13
2018-07-08T09:40:43.646Z,24.89
2018-07-08T09:43:19.663Z,24.97
2018-07-08T09:45:56.495Z,24.96
2018-07-08T09:48:34.410Z,24.72
2018-07-08T09:51:07.884Z,24.68
2018-07-08T09:53:44.138Z,24.88
2018-07-08T09:56:23.365Z,24.94
2018-07-08T09:58:59.234Z,24.89
2018-07-08T10:01:40.111Z,25.17
2018-07-08T10:04:16.092Z,25.44
2018-07-08T10:06:55.596Z,25.16
2018-07-08T10:09:39.479Z,24.47
2018-07-08T10:12:23.792Z,24.69
2018-07-08T10:15:00.598Z,24.99
2018-07-08T10:17:41.691Z,25.14
2018-07-08T10:20:17.674Z,24.98
2018-07-08T10:22:55.705Z,25.10
2018-07-08T10:25:40.250Z,25.27
2018-07-08T10:28:21.585Z,25.36
2018-07-08T10:31:12.854Z,25.46
2018-07-08T10:33:58.759Z,25.45
2018-07-08T10:36:43.236Z,25.52
2018-07-08T10:39:21.230Z,25.65
2018-07-08T10:42:01.491Z,25.81
2018-07-08T10:44:44.061Z,25.82
2018-07-08T10:47:28.810Z,25.61
2018-07-08T10:50:15.834Z,25.62
2018-07-08T10:52:53.174Z,25.33
2018-07-08T10:55:28.412Z,24.96
2018-07-08T10:58:06.682Z,24.80
2018-07-08T11:00:44.290Z,24.92
2018-07-08T11:03:21.473Z,25.11
2018-07-08T11:06:18.652Z,25.02
2018-07-08T11:09:09.566Z,25.26
2018-07-08T11:11:55.148Z,25.46
2018-07-08T11:14:53.210Z,25.50
2018-07-08T11:17:49.435Z,25.47
2018-07-08T11:20:30.190Z,25.57
2018-07-08T11:23:35.118Z,25.71
2018-07-08T11:26:18.510Z,25.49
2018-07-08T11:29:16.685Z,25.48
2018-07-08T11:31:54.277Z,25.92
2018-07-08T11:34:43.177Z,26.24
2018-07-08T11:37:29.343Z,26.19
2018-07-08T11:40:10.128Z,25.97
2018-07-08T11:42:46.718Z,25.90
2018-07-08T11:45:33.630Z,26.20
2018-07-08T11:48:17.599Z,26.01
2018-07-08T11:50:58.089Z,26.00
2018-07-08T11:53:33.317Z,26.03
2018-07-08T11:56:09.547Z,26.07
2018-07-08T11:58:54.963Z,26.26
2018-07-08T12:01:30.247Z,26.54
2018-07-08T12:04:11.095Z,26.61
2018-07-08T12:06:53.298Z,26.46
2018-07-08T12:09:45.690Z,26.46
2018-07-08T12:12:36.884Z,26.32
2018-07-08T12:15:20.622Z,26.64
2018-07-08T12:17:57.990Z,26.84
2018-07-08T12:20:41.349Z,26.79
2018-07-08T12:23:15.151Z,26.64
2018-07-08T12:25:50.744Z,26.84
2018-07-08T12:28:28.173Z,26.90
2018-07-08T12:31:01.400Z,26.92
2018-07-08T12:33:47.250Z,26.99
2018-07-08T12:36:21.177Z,26.75
2018-07-08T12:38:56.755Z,26.89
2018-07-08T12:41:38.336Z,27.07
2018-07-08T12:44:19.831Z,27.21
2018-07-08T12:47:01.378Z,27.11
2018-07-08T12:49:47.395Z,26.90
2018-07-08T12:52:22.513Z,27.16
2018-07-08T12:55:00.436Z,27.19
2018-07-08T12:57:37.263Z,27.01
2018-07-08T13:00:17.012Z,26.90
2018-07-08T13:03:01.563Z,26.98
2018-07-08T13:05:43.821Z,27.33
2018-07-08T13:08:22.834Z,27.41
2018-07-08T13:11:01.873Z,27.59
2018-07-08T13:13:39.538Z,27.49
2018-07-08T13:16:15.006Z,27.53
2018-07-08T13:18:50.329Z,27.83
2018-07-08T13:21:26.165Z,27.83
2018-07-08T13:24:02.452Z,27.64
2018-07-08T13:26:42.515Z,27.65
2018-07-08T13:29:20.381Z,27.75
2018-07-08T13:32:00.660Z,28.09
2018-07-08T13:34:38.485Z,28.24
2018-07-08T13:37:14.508Z,28.18
2018-07-08T13:39:48.754Z,28.17
2018-07-08T13:42:31.798Z,27.84
2018-07-08T13:45:12.519Z,27.93
2018-07-08T13:47:48.267Z,28.18
2018-07-08T13:50:21.826Z,28.41
2018-07-08T13:53:02.235Z,28.28
2018-07-08T13:55:37.360Z,27.91
2018-07-08T13:58:13.754Z,28.01
2018-07-08T14:00:53.133Z,28.14
2018-07-08T14:03:30.331Z,28.12
2018-07-08T14:06:10.802Z,28.45
2018-07-08T14:08:49.631Z,28.85
2018-07-08T14:11:25.182Z,28.37
2018-07-08T14:14:01.506Z,28.26
2018-07-08T14:16:35.865Z,28.46
2018-07-08T14:19:13.570Z,28.77
2018-07-08T14:21:50.855Z,28.84
2018-07-08T14:24:25.281Z,29.19
2018-07-08T14:26:58.925Z,29.47
2018-07-08T14:29:35.274Z,29.69
2018-07-08T14:32:10.231Z,30.05
2018-07-08T14:34:44.352Z,30.01
2018-07-08T14:37:19.468Z,29.99
2018-07-08T14:39:56.065Z,29.89
2018-07-08T14:42:33.009Z,29.79
2018-07-08T14:45:10.647Z,29.75
2018-07-08T14:47:47.636Z,29.88
2018-07-08T14:50:20.125Z,30.04
2018-07-08T14:52:54.178Z,30.05
2018-07-08T14:55:30.947Z,29.59
2018-07-08T14:58:05.802Z,29.41
2018-07-08T15:00:44.006Z,29.58
2018-07-08T15:03:19.527Z,29.51
2018-07-08T15:05:53.389Z,29.16
2018-07-08T15:08:27.612Z,28.94
2018-07-08T15:11:03.923Z,29.00
2018-07-08T15:13:39.480Z,29.09
2018-07-08T15:16:12.786Z,29.00
2018-07-08T15:18:51.730Z,29.00
2018-07-08T15:21:27.281Z,28.86
2018-07-08T15:24:01.451Z,28.88
2018-07-08T15:26:40.010Z,28.95
2018-07-08T15:29:21.790Z,29.28
2018-07-08T15:31:59.451Z,29.63
2018-07-08T15:34:36.672Z,29.75
2018-07-08T15:37:14.169Z,29.72
2018-07-08T15:39:49.077Z,29.81
2018-07-08T15:42:23.252Z,29.89
2018-07-08T15:45:00.357Z,30.27
2018-07-08T15:47:41.050Z,30.22
2018-07-08T15:50:22.508Z,30.31
2018-07-08T15:52:59.915Z,30.25
2018-07-08T15:55:42.495Z,30.39
2018-07-08T15:58:19.373Z,30.02
2018-07-08T16:00:55.867Z,29.45
2018-07-08T16:03:31.010Z,28.92
2018-07-08T16:06:11.267Z,28.86
2018-07-08T16:08:52.987Z,29.16
2018-07-08T16:11:30.554Z,29.55
2018-07-08T16:14:08.541Z,29.98
2018-07-08T16:16:45.530Z,30.21
2018-07-08T16:19:23.449Z,30.35
2018-07-08T16:22:00.972Z,30.23
2018-07-08T16:24:37.119Z,30.00
2018-07-08T16:27:14.505Z,29.77
2018-07-08T16:29:50.692Z,29.78
2018-07-08T16:32:27.630Z,29.63
2018-07-08T16:35:06.208Z,29.70
2018-07-08T16:37:56.855Z,29.84
2018-07-08T16:40:32.688Z,29.74
2018-07-08T16:43:14.118Z,29.66
2018-07-08T16:45:51.348Z,29.25
2018-07-08T16:48:30.409Z,29.39
2018-07-08T16:51:09.503Z,29.54
2018-07-08T16:53:44.838Z,29.54
2018-07-08T16:56:25.813Z,29.53
2018-07-08T16:59:06.438Z,29.57
2018-07-08T17:01:42.632Z,29.83
2018-07-08T17:04:21.585Z,29.57
2018-07-08T17:07:07.834Z,29.44
2018-07-08T17:09:52.587Z,29.07
2018-07-08T17:12:32.331Z,28.74
2018-07-08T17:15:07.070Z,28.70
2018-07-08T17:17:42.825Z,28.69
2018-07-08T17:20:21.862Z,28.48
2018-07-08T17:22:59.203Z,28.36
2018-07-08T17:25:33.999Z,28.35
2018-07-08T17:28:22.318Z,28.25
2018-07-08T17:30:57.631Z,28.06
2018-07-08T17:33:35.563Z,27.84
2018-07-08T17:36:10.820Z,27.65
2018-07-08T17:38:46.556Z,27.44
2018-07-08T17:41:21.572Z,27.30
2018-07-08T17:43:56.450Z,27.06
2018-07-08T17:46:31.477Z,26.89
2018-07-08T17:49:09.313Z,26.80
2018-07-08T17:51:51.228Z,26.78
2018-07-08T17:54:24.549Z,26.77
2018-07-08T17:57:00.657Z,26.78
2018-07-08T17:59:36.753Z,26.83
2018-07-08T18:02:21.792Z,26.79
2018-07-08T18:04:57.997Z,26.68
2018-07-08T18:07:41.402Z,26.48
2018-07-08T18:10:16.890Z,26.37
2018-07-08T18:12:57.492Z,26.11
2018-07-08T18:15:41.561Z,25.85
2018-07-08T18:18:15.063Z,25.60
2018-07-08T18:20:53.584Z,25.43
2018-07-08T18:23:32.527Z,25.25
2018-07-08T18:26:20.574Z,25.09
2018-07-08T18:29:03.667Z,24.91
2018-07-08T18:31:40.427Z,24.87
2018-07-08T18:34:15.769Z,24.80
2018-07-08T18:36:53.911Z,24.72
2018-07-08T18:39:31.650Z,24.64
2018-07-08T18:42:12.576Z,24.57
2018-07-08T18:44:48.373Z,24.47
2018-07-08T18:47:39.974Z,24.39
2018-07-08T18:50:17.788Z,24.36
2018-07-08T18:52:52.634Z,24.32
2018-07-08T18:55:27.837Z,24.24
2018-07-08T18:58:05.460Z,24.14
2018-07-08T19:00:39.628Z,24.10
2018-07-08T19:03:18.344Z,24.07
2018-07-08T19:05:53.161Z,24.08
2018-07-08T19:08:28.279Z,24.00
2018-07-08T19:11:18.769Z,23.87
2018-07-08T19:13:52.356Z,23.74
2018-07-08T19:16:26.474Z,23.62
2018-07-08T19:19:03.213Z,23.50
2018-07-08T19:21:44.576Z,23.40
2018-07-08T19:24:24.769Z,23.31
2018-07-08T19:27:05.656Z,23.22
2018-07-08T19:29:44.169Z,23.15
2018-07-08T19:32:18.777Z,23.06
2018-07-08T19:34:55.585Z,22.95
2018-07-08T19:37:30.970Z,22.84
2018-07-08T19:40:06.953Z,22.73
2018-07-08T19:42:42.175Z,22.54
2018-07-08T19:45:22.034Z,22.38
2018-07-08T19:48:05.307Z,22.17
2018-07-08T19:50:43.494Z,21.96
2018-07-08T19:53:17.328Z,21.79
2018-07-08T19:55:53.028Z,21.64
2018-07-08T19:58:28.355Z,21.48
2018-07-08T20:01:03.218Z,21.26
2018-07-08T20:03:44.265Z,21.03
2018-07-08T20:06:36.749Z,20.83
2018-07-08T20:09:23.684Z,20.62
2018-07-08T20:12:02.569Z,20.52
2018-07-08T20:14:44.993Z,20.42
2018-07-08T20:17:31.074Z,20.37
2018-07-08T20:20:10.731Z,20.22
2018-07-08T20:22:44.573Z,20.05
2018-07-08T20:25:20.814Z,19.93
2018-07-08T20:27:57.864Z,19.77
2018-07-08T20:30:36.720Z,19.65
2018-07-08T20:33:11.510Z,19.57
2018-07-08T20:35:44.908Z,19.53
2018-07-08T20:38:23.003Z,19.50
2018-07-08T20:41:04.073Z,19.50
2018-07-08T20:43:51.570Z,19.44
2018-07-08T20:46:42.592Z,19.34
2018-07-08T20:49:42.545Z,19.33
2018-07-08T20:52:22.759Z,19.28
2018-07-08T20:55:05.178Z,19.20
2018-07-08T20:57:48.237Z,19.17
2018-07-08T21:00:21.701Z,19.09
2018-07-08T21:02:55.853Z,19.04
2018-07-08T21:05:33.827Z,19.18
2018-07-08T21:08:11.861Z,19.26
2018-07-08T21:10:51.590Z,19.23
2018-07-08T21:13:31.485Z,19.22
2018-07-08T21:16:07.653Z,19.17
2018-07-08T21:18:42.687Z,19.17
2018-07-08T21:21:18.931Z,19.18
2018-07-08T21:23:52.600Z,19.19
2018-07-08T21:26:27.664Z,19.16
2018-07-08T21:29:02.760Z,19.06
2018-07-08T21:31:39.002Z,18.88
2018-07-08T21:34:13.658Z,18.72
2018-07-08T21:36:47.175Z,18.60
2018-07-08T21:39:22.313Z,18.53
2018-07-08T21:41:56.573Z,18.46
2018-07-08T21:44:34.988Z,18.43
2018-07-08T21:47:11.487Z,18.39
2018-07-08T21:49:46.028Z,18.31
2018-07-08T21:52:20.363Z,18.22
2018-07-08T21:54:53.499Z,18.19
2018-07-08T21:57:28.572Z,18.22
2018-07-08T22:00:06.914Z,18.13
2018-07-08T22:02:58.429Z,18.04
2018-07-08T22:05:31.836Z,17.89
2018-07-08T22:08:07.320Z,17.73
2018-07-08T22:10:52.079Z,17.77
2018-07-08T22:13:26.733Z,17.76
2018-07-08T22:16:04.282Z,17.73
2018-07-08T22:18:41.292Z,17.71
2018-07-08T22:21:30.687Z,17.69
2018-07-08T22:24:26.314Z,17.75
2018-07-08T22:27:00.303Z,17.65
2018-07-08T22:29:36.450Z,17.55
2018-07-08T22:32:11.645Z,17.44
2018-07-08T22:34:45.458Z,17.35
2018-07-08T22:37:21.906Z,17.27
2018-07-08T22:39:58.410Z,17.20
2018-07-08T22:42:32.604Z,17.17
2018-07-08T22:45:13.157Z,17.14
2018-07-08T22:47:46.489Z,17.04
2018-07-08T22:50:19.039Z,16.98
2018-07-08T22:52:56.371Z,16.86
2018-07-08T22:55:30.975Z,16.76
2018-07-08T22:58:06.513Z,16.70
2018-07-08T23:01:02.638Z,16.71
2018-07-08T23:03:58.045Z,16.73
2018-07-08T23:06:32.996Z,16.85
2018-07-08T23:09:09.657Z,16.92
2018-07-08T23:11:43.141Z,16.83
2018-07-08T23:14:16.290Z,16.79
2018-07-08T23:16:56.582Z,16.72
2018-07-08T23:19:29.929Z,16.63
2018-07-08T23:22:03.777Z,16.66
2018-07-08T23:24:38.841Z,16.65
2018-07-08T23:27:14.271Z,16.69
2018-07-08T23:29:48.969Z,16.66
2018-07-08T23:32:25.685Z,16.58
2018-07-08T23:34:59.609Z,16.47
2018-07-08T23:37:42.405Z,16.43
2018-07-08T23:40:18.669Z,16.40
2018-07-08T23:42:51.569Z,16.33
2018-07-08T23:45:25.154Z,16.33
2018-07-08T23:47:57.796Z,16.36
2018-07-08T23:50:32.110Z,16.48
2018-07-08T23:53:04.786Z,16.48
2018-07-08T23:55:37.297Z,16.45
2018-07-08T23:58:10.034Z,16.43
